Time;durP1;ratioP1;P1;durP2;ratioP2;P2;SDS_P1;SDS_P2;PMS_P1;PMS_P2;Temp;Humidity;BMP_temperature;BMP_pressure;BME280_temperature;BME280_humidity;BME280_pressure;Samples;Min_cycle;Max_cycle;Signal;HPM_P1;HPM_P2
2023/01/20 00:00:46;;;;;;;19.33;16.27;;;;;;;;;;5071204;28;20487;-74
2023/01/20 00:03:14;;;;;;;21.90;16.70;;;;;;;;;;5071324;28;20519;-73
2023/01/20 00:05:50;;;;;;;18.13;14.77;;;;;;;;;;5071558;28;20823;-74
2023/01/20 00:08:17;;;;;;;19.70;15.57;;;;;;;;;;5072944;28;20441;-74
2023/01/20 00:10:44;;;;;;;20.20;15.47;;;;;;;;;;5074991;28;20485;-73
2023/01/20 00:13:11;;;;;;;17.47;15.80;;;;;;;;;;5072311;28;20967;-73
2023/01/20 00:15:38;;;;;;;20.03;15.90;;;;;;;;;;5062250;28;20454;-74
2023/01/20 00:18:05;;;;;;;16.40;14.57;;;;;;;;;;5055535;28;20553;-73
2023/01/20 00:20:34;;;;;;;16.57;14.87;;;;;;;;;;5052576;28;20464;-74
2023/01/20 00:23:01;;;;;;;14.90;13.20;;;;;;;;;;5051138;28;20451;-75
2023/01/20 00:25:28;;;;;;;21.60;14.17;;;;;;;;;;5051505;28;20438;-75
2023/01/20 00:27:55;;;;;;;14.77;12.07;;;;;;;;;;5050908;28;20458;-74
2023/01/20 00:30:22;;;;;;;15.03;13.63;;;;;;;;;;5051538;28;20488;-75
2023/01/20 00:32:49;;;;;;;16.97;14.00;;;;;;;;;;5057882;28;20451;-75
2023/01/20 00:35:16;;;;;;;17.13;14.97;;;;;;;;;;5058203;28;21023;-76
2023/01/20 00:37:44;;;;;;;17.73;15.03;;;;;;;;;;5057105;28;20450;-75
2023/01/20 00:40:12;;;;;;;19.17;14.63;;;;;;;;;;5055774;28;20478;-75
2023/01/20 00:42:39;;;;;;;17.60;15.80;;;;;;;;;;5055031;28;20477;-75
2023/01/20 00:45:06;;;;;;;16.50;14.90;;;;;;;;;;5050771;28;20443;-74
2023/01/20 00:47:33;;;;;;;18.93;15.57;;;;;;;;;;5050335;28;20442;-75
2023/01/20 00:50:00;;;;;;;18.90;16.80;;;;;;;;;;5050754;28;20490;-75
2023/01/20 00:52:27;;;;;;;16.63;14.97;;;;;;;;;;5050415;28;20980;-73
2023/01/20 00:54:56;;;;;;;17.33;15.63;;;;;;;;;;5051547;28;20526;-73
2023/01/20 00:57:23;;;;;;;16.20;14.57;;;;;;;;;;5052357;28;20455;-74
2023/01/20 00:59:50;;;;;;;16.37;14.67;;;;;;;;;;5051550;28;20466;-74
2023/01/20 01:02:17;;;;;;;16.00;14.30;;;;;;;;;;5051633;28;20444;-75
2023/01/20 01:04:44;;;;;;;16.93;15.13;;;;;;;;;;5051152;28;20449;-75
2023/01/20 01:07:11;;;;;;;19.23;14.63;;;;;;;;;;5050927;28;20549;-74
2023/01/20 01:09:38;;;;;;;15.43;13.83;;;;;;;;;;5049923;28;21001;-75
2023/01/20 01:12:06;;;;;;;16.60;14.80;;;;;;;;;;5050262;28;20499;-75
2023/01/20 01:14:33;;;;;;;14.70;13.20;;;;;;;;;;5050657;28;20946;-74
2023/01/20 01:17:00;;;;;;;15.13;13.63;;;;;;;;;;5055933;28;20448;-74
2023/01/20 01:19:27;;;;;;;15.40;13.93;;;;;;;;;;5061083;28;20588;-72
2023/01/20 01:21:55;;;;;;;15.50;14.00;;;;;;;;;;5058403;28;20445;-73
2023/01/20 01:24:22;;;;;;;15.67;14.03;;;;;;;;;;5058975;28;20535;-74
2023/01/20 01:26:49;;;;;;;20.20;14.20;;;;;;;;;;5054762;28;20454;-73
2023/01/20 01:29:17;;;;;;;14.60;13.20;;;;;;;;;;5064315;28;20457;-74
2023/01/20 01:31:44;;;;;;;20.33;14.63;;;;;;;;;;5069576;28;20443;-74
2023/01/20 01:34:11;;;;;;;17.50;14.60;;;;;;;;;;5069918;28;20847;-73
2023/01/20 01:36:38;;;;;;;15.00;13.63;;;;;;;;;;5069631;28;20541;-74
2023/01/20 01:39:06;;;;;;;15.10;13.60;;;;;;;;;;5069975;28;20812;-73
2023/01/20 01:41:33;;;;;;;15.47;13.97;;;;;;;;;;5069911;28;20572;-73
2023/01/20 01:44:05;;;;;;;15.47;13.90;;;;;;;;;;5069503;28;20442;-75
2023/01/20 01:46:33;;;;;;;17.87;13.60;;;;;;;;;;5069813;28;20453;-73
2023/01/20 01:49:01;;;;;;;16.13;13.53;;;;;;;;;;5069383;28;20480;-74
2023/01/20 01:51:30;;;;;;;18.00;13.30;;;;;;;;;;5070346;28;20485;-73
2023/01/20 01:54:00;;;;;;;14.73;13.13;;;;;;;;;;5069859;28;20485;-75
2023/01/20 01:56:28;;;;;;;17.40;14.00;;;;;;;;;;5069927;28;20445;-75
2023/01/20 01:58:57;;;;;;;15.23;13.73;;;;;;;;;;5069592;28;20468;-74
2023/01/20 02:01:24;;;;;;;16.13;14.40;;;;;;;;;;5069766;28;20447;-74
2023/01/20 02:03:56;;;;;;;16.03;14.43;;;;;;;;;;5068968;28;20871;-75
2023/01/20 02:06:23;;;;;;;15.63;14.13;;;;;;;;;;5069723;28;20462;-76
2023/01/20 02:08:51;;;;;;;16.47;14.60;;;;;;;;;;5069521;28;20466;-74
2023/01/20 02:11:18;;;;;;;16.80;15.00;;;;;;;;;;5069515;28;20485;-74
2023/01/20 02:13:45;;;;;;;16.10;14.50;;;;;;;;;;5069722;28;20963;-73
2023/01/20 02:16:15;;;;;;;18.33;15.50;;;;;;;;;;5072896;28;20450;-75
2023/01/20 02:18:50;;;;;;;15.93;14.30;;;;;;;;;;5073360;28;20463;-73
2023/01/20 02:21:29;;;;;;;16.10;14.50;;;;;;;;;;5073232;28;20447;-73
2023/01/20 02:24:09;;;;;;;19.20;15.93;;;;;;;;;;5073468;28;20848;-73
2023/01/20 02:26:45;;;;;;;18.10;16.03;;;;;;;;;;5073008;28;20990;-75
2023/01/20 02:29:28;;;;;;;17.40;15.70;;;;;;;;;;5073089;28;20778;-74
2023/01/20 02:32:09;;;;;;;16.67;14.87;;;;;;;;;;5060188;28;20461;-74
2023/01/20 02:34:39;;;;;;;18.33;16.43;;;;;;;;;;5072280;28;20966;-74
2023/01/20 02:37:09;;;;;;;20.93;15.87;;;;;;;;;;5072605;28;20453;-74
2023/01/20 02:39:40;;;;;;;18.80;16.80;;;;;;;;;;5072974;28;20469;-73
2023/01/20 02:42:09;;;;;;;17.53;15.70;;;;;;;;;;5072808;28;20443;-75
2023/01/20 02:44:38;;;;;;;18.67;16.77;;;;;;;;;;5072278;28;20439;-74
2023/01/20 02:47:10;;;;;;;19.43;17.40;;;;;;;;;;5072650;28;20452;-73
2023/01/20 02:49:41;;;;;;;20.10;17.30;;;;;;;;;;5072321;28;20494;-74
2023/01/20 02:52:11;;;;;;;20.60;17.10;;;;;;;;;;5072659;28;20442;-74
2023/01/20 02:54:39;;;;;;;20.63;18.50;;;;;;;;;;5072427;28;20472;-73
2023/01/20 02:57:07;;;;;;;18.23;16.30;;;;;;;;;;5072283;28;20462;-74
2023/01/20 02:59:38;;;;;;;19.27;17.30;;;;;;;;;;5072164;28;20469;-75
2023/01/20 03:02:08;;;;;;;20.37;18.17;;;;;;;;;;5071683;28;20533;-74
2023/01/20 03:04:39;;;;;;;20.37;18.27;;;;;;;;;;5072352;28;20783;-74
2023/01/20 03:07:06;;;;;;;26.40;18.50;;;;;;;;;;5071877;28;20462;-74
2023/01/20 03:09:36;;;;;;;20.43;18.33;;;;;;;;;;5071770;28;20467;-74
2023/01/20 03:12:07;;;;;;;22.20;17.27;;;;;;;;;;5072293;28;20993;-74
2023/01/20 03:14:34;;;;;;;21.67;16.40;;;;;;;;;;5072274;28;20446;-74
2023/01/20 03:17:01;;;;;;;20.33;18.17;;;;;;;;;;5072249;28;20448;-73
2023/01/20 03:19:28;;;;;;;19.70;16.80;;;;;;;;;;5072007;28;20463;-76
2023/01/20 03:21:58;;;;;;;18.30;16.40;;;;;;;;;;5072078;28;20450;-74
2023/01/20 03:24:26;;;;;;;15.53;13.97;;;;;;;;;;5071511;28;20442;-73
2023/01/20 03:26:53;;;;;;;16.47;14.87;;;;;;;;;;5071891;28;20440;-72
2023/01/20 03:29:20;;;;;;;14.43;13.00;;;;;;;;;;5073243;28;20470;-73
2023/01/20 03:31:49;;;;;;;15.27;13.63;;;;;;;;;;5072148;28;20488;-76
2023/01/20 03:34:18;;;;;;;15.43;12.37;;;;;;;;;;5072321;28;20453;-75
2023/01/20 03:36:45;;;;;;;13.80;12.27;;;;;;;;;;5073940;28;20439;-72
2023/01/20 03:39:14;;;;;;;13.53;11.77;;;;;;;;;;5071358;28;20471;-73
2023/01/20 03:41:45;;;;;;;13.87;12.47;;;;;;;;;;5071150;28;20448;-73
2023/01/20 03:44:14;;;;;;;12.60;11.10;;;;;;;;;;5071143;28;20502;-73
2023/01/20 03:46:43;;;;;;;16.90;12.20;;;;;;;;;;5071228;28;20785;-74
2023/01/20 03:49:16;;;;;;;13.00;11.70;;;;;;;;;;5071133;28;20460;-74
2023/01/20 03:51:47;;;;;;;12.53;11.23;;;;;;;;;;5071145;28;20857;-74
2023/01/20 03:54:18;;;;;;;13.30;11.17;;;;;;;;;;5070764;28;21008;-73
2023/01/20 03:56:50;;;;;;;12.07;10.97;;;;;;;;;;5071059;28;20445;-75
2023/01/20 03:59:19;;;;;;;12.33;11.13;;;;;;;;;;5070936;28;20458;-74
2023/01/20 04:01:47;;;;;;;13.43;12.03;;;;;;;;;;5071233;28;20440;-74
2023/01/20 04:04:16;;;;;;;12.70;11.40;;;;;;;;;;5070856;28;20440;-73
2023/01/20 04:06:44;;;;;;;12.60;11.37;;;;;;;;;;5071244;28;20499;-75
2023/01/20 04:09:14;;;;;;;13.57;11.90;;;;;;;;;;5071517;28;20454;-75
2023/01/20 04:11:43;;;;;;;13.30;11.30;;;;;;;;;;5070894;28;20477;-75
2023/01/20 04:14:10;;;;;;;13.57;12.17;;;;;;;;;;5070588;28;20589;-73
2023/01/20 04:16:37;;;;;;;13.80;12.37;;;;;;;;;;5054624;28;20520;-73
2023/01/20 04:19:04;;;;;;;13.50;12.10;;;;;;;;;;5052961;28;20485;-73
2023/01/20 04:21:33;;;;;;;10.67;9.67;;;;;;;;;;5051082;28;20443;-72
2023/01/20 04:24:02;;;;;;;12.50;11.33;;;;;;;;;;5051147;28;20458;-73
2023/01/20 04:26:29;;;;;;;10.90;9.80;;;;;;;;;;5051825;28;20450;-74
2023/01/20 04:28:58;;;;;;;13.10;11.67;;;;;;;;;;5050793;28;20471;-73
2023/01/20 04:31:25;;;;;;;12.23;10.50;;;;;;;;;;5050438;28;20474;-74
2023/01/20 04:33:52;;;;;;;11.73;10.63;;;;;;;;;;5053702;28;20446;-74
2023/01/20 04:36:19;;;;;;;13.27;11.33;;;;;;;;;;5054733;28;20835;-73
2023/01/20 04:38:46;;;;;;;13.00;11.00;;;;;;;;;;5054103;28;20475;-74
2023/01/20 04:41:13;;;;;;;13.43;12.17;;;;;;;;;;5053582;28;20447;-72
2023/01/20 04:43:43;;;;;;;12.30;11.10;;;;;;;;;;5053112;28;20937;-74
2023/01/20 04:46:13;;;;;;;11.70;10.60;;;;;;;;;;5053250;28;20474;-73
2023/01/20 04:48:40;;;;;;;14.37;11.90;;;;;;;;;;5051765;28;20450;-73
2023/01/20 04:51:07;;;;;;;12.60;11.10;;;;;;;;;;5050667;28;20708;-74
2023/01/20 04:53:34;;;;;;;11.87;10.70;;;;;;;;;;5050259;28;20448;-73
2023/01/20 04:56:01;;;;;;;12.80;11.60;;;;;;;;;;5050911;28;20449;-74
2023/01/20 04:58:28;;;;;;;13.20;11.53;;;;;;;;;;5051640;28;20467;-74
2023/01/20 05:00:55;;;;;;;13.50;12.20;;;;;;;;;;5052704;28;20442;-73
2023/01/20 05:03:24;;;;;;;13.03;11.73;;;;;;;;;;5055768;28;20454;-72
2023/01/20 05:05:54;;;;;;;12.70;11.43;;;;;;;;;;5054385;28;20453;-75
2023/01/20 05:08:21;;;;;;;12.67;11.43;;;;;;;;;;5050934;28;20469;-72
2023/01/20 05:10:48;;;;;;;13.37;11.70;;;;;;;;;;5050861;28;20861;-73
2023/01/20 05:13:15;;;;;;;14.10;12.63;;;;;;;;;;5050564;28;20451;-73
2023/01/20 05:15:43;;;;;;;14.53;11.43;;;;;;;;;;5060107;28;20559;-73
2023/01/20 05:18:10;;;;;;;12.70;11.37;;;;;;;;;;5070667;28;20483;-73
2023/01/20 05:20:38;;;;;;;11.87;10.80;;;;;;;;;;5070197;28;20483;-74
2023/01/20 05:23:06;;;;;;;12.07;10.87;;;;;;;;;;5069613;28;20814;-74
2023/01/20 05:25:33;;;;;;;12.80;11.63;;;;;;;;;;5069976;28;20489;-73
2023/01/20 05:28:00;;;;;;;11.70;10.60;;;;;;;;;;5070144;28;20450;-75
2023/01/20 05:30:27;;;;;;;14.37;13.00;;;;;;;;;;5069856;28;20972;-73
2023/01/20 05:32:54;;;;;;;13.80;12.37;;;;;;;;;;5069563;28;20444;-74
2023/01/20 05:35:21;;;;;;;13.17;11.77;;;;;;;;;;5069936;28;20933;-72
2023/01/20 05:37:52;;;;;;;15.20;13.70;;;;;;;;;;5069982;28;20452;-73
2023/01/20 05:40:19;;;;;;;15.03;13.53;;;;;;;;;;5069632;28;20469;-73
2023/01/20 05:42:46;;;;;;;14.83;13.43;;;;;;;;;;5069693;28;20441;-74
2023/01/20 05:45:13;;;;;;;13.90;12.50;;;;;;;;;;5069828;28;20814;-74
2023/01/20 05:47:40;;;;;;;13.03;11.73;;;;;;;;;;5069858;28;20449;-73
2023/01/20 05:50:08;;;;;;;12.23;10.70;;;;;;;;;;5072811;28;20489;-73
2023/01/20 05:52:35;;;;;;;14.53;12.67;;;;;;;;;;5073221;28;20488;-73
2023/01/20 05:55:04;;;;;;;12.73;11.10;;;;;;;;;;5073254;28;20940;-74
2023/01/20 05:57:31;;;;;;;13.13;11.90;;;;;;;;;;5073694;28;20529;-74
2023/01/20 05:59:58;;;;;;;12.70;11.60;;;;;;;;;;5073190;28;20475;-74
2023/01/20 06:02:25;;;;;;;13.47;11.33;;;;;;;;;;5073296;28;20438;-73
2023/01/20 06:04:52;;;;;;;13.03;11.77;;;;;;;;;;5073159;28;20448;-73
2023/01/20 06:07:19;;;;;;;14.17;12.77;;;;;;;;;;5074655;28;20453;-75
2023/01/20 06:09:46;;;;;;;13.07;11.10;;;;;;;;;;5075019;28;20548;-73
2023/01/20 06:12:14;;;;;;;12.37;11.10;;;;;;;;;;5073692;28;20515;-75
2023/01/20 06:14:41;;;;;;;11.67;10.57;;;;;;;;;;5072232;28;20549;-73
2023/01/20 06:17:09;;;;;;;13.20;11.90;;;;;;;;;;5053487;28;20454;-73
2023/01/20 06:19:36;;;;;;;16.43;13.70;;;;;;;;;;5054016;28;20498;-74
2023/01/20 06:22:03;;;;;;;13.23;11.80;;;;;;;;;;5058539;28;20850;-74
2023/01/20 06:24:30;;;;;;;12.27;11.17;;;;;;;;;;5063863;28;20448;-74
2023/01/20 06:26:57;;;;;;;11.53;10.30;;;;;;;;;;5058911;28;20509;-75
2023/01/20 06:29:26;;;;;;;11.43;10.43;;;;;;;;;;5061584;28;20459;-74
2023/01/20 06:31:53;;;;;;;13.70;11.07;;;;;;;;;;5067256;28;20473;-74
2023/01/20 06:34:20;;;;;;;12.97;11.60;;;;;;;;;;5063789;28;20445;-74
2023/01/20 06:36:47;;;;;;;12.57;11.23;;;;;;;;;;5052854;28;20449;-73
2023/01/20 06:39:14;;;;;;;12.30;11.00;;;;;;;;;;5052898;28;20505;-75
2023/01/20 06:41:41;;;;;;;12.23;11.13;;;;;;;;;;5052836;28;20446;-75
2023/01/20 06:44:08;;;;;;;12.27;11.17;;;;;;;;;;5052452;28;20456;-73
2023/01/20 06:46:37;;;;;;;13.20;10.67;;;;;;;;;;5052860;28;20446;-73
2023/01/20 06:49:04;;;;;;;12.33;11.20;;;;;;;;;;5052629;28;20473;-73
2023/01/20 06:51:32;;;;;;;13.50;12.17;;;;;;;;;;5052724;28;20846;-74
2023/01/20 06:53:59;;;;;;;18.67;13.50;;;;;;;;;;5052115;28;20899;-74
2023/01/20 06:56:26;;;;;;;13.03;11.67;;;;;;;;;;5052225;28;20453;-75
2023/01/20 06:58:53;;;;;;;11.80;10.50;;;;;;;;;;5052032;28;20472;-73
2023/01/20 07:01:22;;;;;;;12.30;11.10;;;;;;;;;;5058577;28;20434;-74
2023/01/20 07:03:50;;;;;;;12.70;11.23;;;;;;;;;;5058641;28;20784;-73
2023/01/20 07:06:18;;;;;;;14.17;12.67;;;;;;;;;;5052154;28;20458;-74
2023/01/20 07:08:46;;;;;;;14.17;12.30;;;;;;;;;;5051953;28;20475;-73
2023/01/20 07:11:13;;;;;;;14.83;13.23;;;;;;;;;;5051973;28;20449;-74
2023/01/20 07:13:40;;;;;;;14.20;12.70;;;;;;;;;;5057848;28;20469;-73
2023/01/20 07:16:08;;;;;;;12.27;11.17;;;;;;;;;;5072451;28;20431;-74
2023/01/20 07:18:35;;;;;;;14.87;13.33;;;;;;;;;;5077237;28;20465;-74
2023/01/20 07:21:03;;;;;;;13.83;12.40;;;;;;;;;;5071919;28;20556;-72
2023/01/20 07:23:32;;;;;;;13.03;11.73;;;;;;;;;;5071295;28;20452;-73
2023/01/20 07:25:59;;;;;;;12.57;11.27;;;;;;;;;;5071826;28;20443;-74
2023/01/20 07:28:26;;;;;;;14.30;11.27;;;;;;;;;;5071960;28;20476;-74
2023/01/20 07:30:54;;;;;;;16.03;14.53;;;;;;;;;;5071119;28;20819;-74
2023/01/20 07:33:21;;;;;;;14.27;11.93;;;;;;;;;;5070755;28;20504;-74
2023/01/20 07:35:52;;;;;;;15.93;12.23;;;;;;;;;;5071296;28;20836;-73
2023/01/20 07:38:20;;;;;;;13.53;11.60;;;;;;;;;;5071280;28;20555;-73
2023/01/20 07:40:47;;;;;;;13.77;12.17;;;;;;;;;;5071629;28;20453;-73
2023/01/20 07:43:14;;;;;;;14.07;12.53;;;;;;;;;;5070570;28;20444;-74
2023/01/20 07:45:41;;;;;;;12.63;11.40;;;;;;;;;;5071816;28;20497;-74
2023/01/20 07:48:09;;;;;;;12.80;11.50;;;;;;;;;;5069174;28;20450;-74
2023/01/20 07:50:36;;;;;;;15.20;11.10;;;;;;;;;;5062826;28;20469;-73
2023/01/20 07:53:03;;;;;;;12.87;11.57;;;;;;;;;;5070500;28;20484;-74
2023/01/20 07:55:32;;;;;;;12.67;11.37;;;;;;;;;;5070735;28;20452;-74
2023/01/20 07:57:59;;;;;;;13.47;12.07;;;;;;;;;;5070756;28;20452;-73
2023/01/20 08:00:26;;;;;;;13.53;11.70;;;;;;;;;;5068369;28;20475;-74
2023/01/20 08:02:53;;;;;;;12.53;11.13;;;;;;;;;;5071729;28;20450;-73
2023/01/20 08:05:21;;;;;;;18.03;12.70;;;;;;;;;;5071432;28;20443;-75
2023/01/20 08:07:50;;;;;;;17.87;11.80;;;;;;;;;;5071413;28;20479;-76
2023/01/20 08:10:17;;;;;;;11.97;10.60;;;;;;;;;;5070111;28;20957;-73
2023/01/20 08:12:45;;;;;;;14.00;11.90;;;;;;;;;;5069705;28;20483;-73
2023/01/20 08:15:13;;;;;;;12.23;10.93;;;;;;;;;;5070624;28;20438;-74
2023/01/20 08:17:40;;;;;;;13.17;11.60;;;;;;;;;;5070541;28;20447;-74
2023/01/20 08:20:08;;;;;;;12.13;10.70;;;;;;;;;;5070672;28;20473;-73
2023/01/20 08:22:35;;;;;;;12.70;10.93;;;;;;;;;;5069967;28;20451;-73
2023/01/20 08:25:02;;;;;;;12.50;11.30;;;;;;;;;;5070331;28;20442;-74
2023/01/20 08:27:29;;;;;;;13.13;11.73;;;;;;;;;;5070354;28;20450;-75
2023/01/20 08:29:58;;;;;;;12.23;11.00;;;;;;;;;;5070253;28;20502;-72
2023/01/20 08:32:25;;;;;;;12.80;11.50;;;;;;;;;;5070066;28;20474;-73
2023/01/20 08:34:52;;;;;;;12.30;11.10;;;;;;;;;;5082845;28;20924;-73
2023/01/20 08:37:19;;;;;;;12.13;11.00;;;;;;;;;;5090551;28;20434;-74
2023/01/20 08:39:46;;;;;;;12.50;11.20;;;;;;;;;;5090776;28;20493;-74
2023/01/20 08:42:13;;;;;;;12.43;11.33;;;;;;;;;;5090680;28;20810;-74
2023/01/20 08:44:40;;;;;;;12.80;10.93;;;;;;;;;;5090537;28;20461;-74
2023/01/20 08:47:09;;;;;;;11.67;10.50;;;;;;;;;;5090558;28;20451;-74
2023/01/20 08:49:36;;;;;;;11.93;10.70;;;;;;;;;;5090089;28;20463;-74
2023/01/20 08:52:03;;;;;;;12.00;10.80;;;;;;;;;;5090001;28;20474;-75
2023/01/20 08:54:33;;;;;;;11.93;10.73;;;;;;;;;;5090342;28;20429;-74
2023/01/20 08:57:00;;;;;;;12.20;10.70;;;;;;;;;;5090071;28;20851;-74
2023/01/20 08:59:27;;;;;;;12.30;11.10;;;;;;;;;;5090656;28;20538;-73
2023/01/20 09:01:54;;;;;;;13.73;12.27;;;;;;;;;;5091017;28;20773;-74
2023/01/20 09:04:22;;;;;;;12.47;11.20;;;;;;;;;;5094430;28;20847;-75
2023/01/20 09:06:51;;;;;;;12.10;10.80;;;;;;;;;;5090663;28;20951;-74
2023/01/20 09:09:19;;;;;;;12.27;10.87;;;;;;;;;;5090225;28;20471;-74
2023/01/20 09:11:50;;;;;;;12.80;11.50;;;;;;;;;;5090186;28;20443;-74
2023/01/20 09:14:17;;;;;;;14.63;10.87;;;;;;;;;;5090377;28;20467;-73
2023/01/20 09:16:44;;;;;;;14.00;11.27;;;;;;;;;;5073930;28;20446;-73
2023/01/20 09:19:11;;;;;;;12.40;11.20;;;;;;;;;;5074831;28;20470;-74
2023/01/20 09:21:39;;;;;;;11.33;10.20;;;;;;;;;;5073912;28;20962;-73
2023/01/20 09:24:07;;;;;;;13.37;11.10;;;;;;;;;;5079459;28;20937;-75
2023/01/20 09:26:38;;;;;;;13.20;11.83;;;;;;;;;;5080548;28;20450;-73
2023/01/20 09:29:08;;;;;;;16.60;12.83;;;;;;;;;;5076187;28;20498;-74
2023/01/20 09:31:35;;;;;;;12.03;10.80;;;;;;;;;;5075800;28;20558;-74
2023/01/20 09:34:02;;;;;;;12.63;10.20;;;;;;;;;;5074305;28;20501;-75
2023/01/20 09:36:29;;;;;;;12.80;10.77;;;;;;;;;;5073461;28;20444;-74
2023/01/20 09:44:34;;;;;;;12.90;11.37;;;;;;;;;;5073802;28;20799;-74
2023/01/20 09:47:21;;;;;;;11.40;10.23;;;;;;;;;;5073970;28;20507;-74
2023/01/20 09:55:30;;;;;;;11.23;10.13;;;;;;;;;;5073411;28;20418;-75
2023/01/20 09:58:01;;;;;;;11.93;10.70;;;;;;;;;;5073967;28;20444;-74
2023/01/20 10:00:31;;;;;;;12.90;11.63;;;;;;;;;;5073846;28;20470;-74
2023/01/20 10:03:01;;;;;;;13.83;12.23;;;;;;;;;;5072700;28;20436;-74
2023/01/20 10:05:31;;;;;;;13.40;12.00;;;;;;;;;;5073020;28;20931;-74
2023/01/20 10:08:02;;;;;;;13.07;11.77;;;;;;;;;;5073375;28;20529;-74
2023/01/20 10:10:32;;;;;;;14.03;12.53;;;;;;;;;;5073360;28;20474;-74
2023/01/20 10:13:04;;;;;;;13.20;11.90;;;;;;;;;;5073031;28;20480;-74
2023/01/20 10:15:32;;;;;;;15.30;12.90;;;;;;;;;;5065236;28;20460;-74
2023/01/20 10:18:03;;;;;;;13.97;12.57;;;;;;;;;;5053316;28;20453;-74
2023/01/20 10:20:34;;;;;;;13.13;11.73;;;;;;;;;;5052864;28;20690;-75
2023/01/20 10:23:04;;;;;;;12.93;11.60;;;;;;;;;;5052962;28;20983;-76
2023/01/20 10:25:34;;;;;;;13.10;11.60;;;;;;;;;;5053460;28;20531;-74
2023/01/20 10:28:05;;;;;;;12.47;11.17;;;;;;;;;;5052705;28;20457;-75
2023/01/20 10:30:33;;;;;;;13.97;12.17;;;;;;;;;;5052620;28;20480;-76
2023/01/20 10:33:03;;;;;;;12.00;10.80;;;;;;;;;;5055513;28;20654;-75
2023/01/20 10:35:35;;;;;;;13.93;11.70;;;;;;;;;;5053691;28;20821;-74
2023/01/20 10:38:03;;;;;;;12.67;11.33;;;;;;;;;;5053035;28;20432;-75
2023/01/20 10:40:34;;;;;;;14.60;12.47;;;;;;;;;;5052485;28;20884;-75
2023/01/20 10:43:04;;;;;;;15.70;12.37;;;;;;;;;;5052644;28;20441;-75
2023/01/20 10:45:38;;;;;;;22.10;12.50;;;;;;;;;;5052495;28;20441;-74
2023/01/20 10:48:10;;;;;;;9.23;8.43;;;;;;;;;;5052600;28;21043;-75
2023/01/20 10:50:45;;;;;;;9.20;8.10;;;;;;;;;;5052287;28;20469;-74
2023/01/20 10:53:25;;;;;;;8.47;7.67;;;;;;;;;;5052438;28;20996;-75
2023/01/20 10:55:59;;;;;;;8.37;7.47;;;;;;;;;;5067612;28;20455;-75
2023/01/20 10:58:28;;;;;;;7.97;7.17;;;;;;;;;;5062643;28;20599;-74
2023/01/20 11:00:56;;;;;;;8.07;7.27;;;;;;;;;;5072474;28;20440;-75
2023/01/20 11:03:23;;;;;;;9.70;8.20;;;;;;;;;;5061296;28;20444;-74
2023/01/20 11:05:52;;;;;;;12.57;9.70;;;;;;;;;;5063225;28;20545;-76
2023/01/20 11:08:21;;;;;;;9.40;8.50;;;;;;;;;;5062664;28;20822;-75
2023/01/20 11:10:49;;;;;;;9.93;7.90;;;;;;;;;;5062975;28;20975;-75
2023/01/20 11:13:18;;;;;;;8.90;8.00;;;;;;;;;;5065122;28;20499;-76
2023/01/20 11:15:46;;;;;;;9.70;8.70;;;;;;;;;;5062261;28;20454;-76
2023/01/20 11:18:20;;;;;;;10.27;9.10;;;;;;;;;;5058288;28;20948;-76
2023/01/20 11:20:48;;;;;;;10.97;9.60;;;;;;;;;;5060315;28;20460;-74
2023/01/20 11:23:20;;;;;;;8.77;7.87;;;;;;;;;;5057117;28;20443;-75
2023/01/20 11:25:53;;;;;;;20.20;16.90;;;;;;;;;;5070632;28;20460;-75
2023/01/20 11:28:23;;;;;;;9.73;7.17;;;;;;;;;;5070087;28;20474;-75
2023/01/20 11:30:51;;;;;;;8.83;5.60;;;;;;;;;;5070562;28;20457;-74
2023/01/20 11:33:20;;;;;;;5.40;4.90;;;;;;;;;;5070171;28;20488;-75
2023/01/20 11:36:00;;;;;;;5.47;5.07;;;;;;;;;;5070453;28;20440;-75
2023/01/20 11:38:29;;;;;;;5.57;4.97;;;;;;;;;;5070609;28;20455;-74
2023/01/20 11:40:57;;;;;;;5.40;4.90;;;;;;;;;;5070829;28;20448;-75
2023/01/20 11:43:34;;;;;;;6.87;5.60;;;;;;;;;;5070603;28;20877;-75
2023/01/20 11:46:22;;;;;;;5.93;4.87;;;;;;;;;;5070272;28;20476;-76
2023/01/20 11:48:49;;;;;;;6.17;5.40;;;;;;;;;;5070149;28;20465;-74
2023/01/20 11:51:20;;;;;;;7.77;5.80;;;;;;;;;;5069656;28;20979;-76
2023/01/20 11:53:47;;;;;;;9.80;8.80;;;;;;;;;;5070269;28;20546;-75
2023/01/20 11:56:19;;;;;;;7.17;5.50;;;;;;;;;;5073374;28;20448;-75
2023/01/20 11:58:53;;;;;;;6.30;5.70;;;;;;;;;;5071548;28;20461;-76
2023/01/20 12:01:22;;;;;;;5.47;4.93;;;;;;;;;;5072286;28;20456;-75
2023/01/20 12:04:13;;;;;;;6.10;5.47;;;;;;;;;;5070458;28;20437;-76
2023/01/20 12:06:53;;;;;;;5.13;4.70;;;;;;;;;;5070493;28;20464;-76
2023/01/20 12:09:22;;;;;;;7.07;5.00;;;;;;;;;;5070869;28;20471;-76
2023/01/20 12:11:52;;;;;;;5.00;4.60;;;;;;;;;;5074817;28;20796;-76
2023/01/20 12:14:24;;;;;;;7.10;5.40;;;;;;;;;;5073673;28;20475;-76
2023/01/20 12:16:58;;;;;;;5.70;5.20;;;;;;;;;;5051528;28;20524;-76
2023/01/20 12:19:28;;;;;;;5.70;5.20;;;;;;;;;;5057925;28;20463;-75
2023/01/20 12:27:32;;;;;;;6.00;5.50;;;;;;;;;;5049292;28;20555;-76
2023/01/20 12:30:03;;;;;;;7.33;5.60;;;;;;;;;;5048840;28;20593;-77
2023/01/20 12:32:32;;;;;;;5.30;4.90;;;;;;;;;;5049354;28;20847;-75
2023/01/20 12:34:59;;;;;;;5.57;5.07;;;;;;;;;;5049160;28;20488;-76
2023/01/20 12:37:31;;;;;;;5.77;5.13;;;;;;;;;;5049659;28;20449;-75
2023/01/20 12:40:03;;;;;;;5.97;5.37;;;;;;;;;;5049220;28;20976;-75
2023/01/20 12:42:39;;;;;;;6.13;5.70;;;;;;;;;;5049538;28;20460;-75
2023/01/20 12:45:14;;;;;;;6.20;5.50;;;;;;;;;;5049295;28;20682;-76
2023/01/20 12:47:45;;;;;;;11.03;5.57;;;;;;;;;;5049154;28;20975;-76
2023/01/20 12:50:19;;;;;;;9.33;5.97;;;;;;;;;;5049727;28;20538;-76
2023/01/20 12:52:54;;;;;;;10.30;7.30;;;;;;;;;;5051958;28;20913;-76
2023/01/20 12:55:27;;;;;;;7.80;6.87;;;;;;;;;;5066348;28;20887;-76
2023/01/20 12:58:01;;;;;;;9.30;6.97;;;;;;;;;;5052654;28;20433;-76
2023/01/20 13:00:36;;;;;;;8.57;7.77;;;;;;;;;;5062920;28;20475;-76
2023/01/20 13:03:15;;;;;;;10.33;9.43;;;;;;;;;;5069409;28;20443;-76
2023/01/20 13:05:56;;;;;;;9.53;7.83;;;;;;;;;;5048882;28;20529;-76
2023/01/20 13:08:35;;;;;;;10.10;8.00;;;;;;;;;;5058600;28;20426;-76
2023/01/20 13:11:07;;;;;;;8.20;7.43;;;;;;;;;;5054959;28;20505;-76
2023/01/20 13:13:39;;;;;;;10.90;8.43;;;;;;;;;;5059772;28;20481;-76
2023/01/20 13:16:12;;;;;;;11.77;8.17;;;;;;;;;;5059029;28;20448;-76
2023/01/20 13:18:45;;;;;;;10.23;8.87;;;;;;;;;;5058084;28;20460;-76
2023/01/20 13:21:17;;;;;;;12.30;8.30;;;;;;;;;;5064383;28;20834;-76
2023/01/20 13:23:45;;;;;;;9.23;7.70;;;;;;;;;;5063060;28;20437;-76
2023/01/20 13:26:12;;;;;;;8.63;6.77;;;;;;;;;;5072463;28;20452;-76
2023/01/20 13:28:50;;;;;;;8.17;7.40;;;;;;;;;;5080837;28;20452;-76
2023/01/20 13:31:32;;;;;;;8.50;6.50;;;;;;;;;;5051219;28;20824;-77
2023/01/20 13:34:14;;;;;;;9.60;6.80;;;;;;;;;;5048729;28;20473;-76
2023/01/20 13:36:43;;;;;;;7.13;5.67;;;;;;;;;;5048961;28;20440;-76
2023/01/20 13:39:29;;;;;;;6.13;5.63;;;;;;;;;;5049576;28;20496;-75
2023/01/20 13:41:56;;;;;;;6.20;5.70;;;;;;;;;;5049526;28;20532;-76
2023/01/20 13:44:26;;;;;;;6.73;6.07;;;;;;;;;;5049532;28;20901;-77
2023/01/20 13:46:55;;;;;;;6.83;5.93;;;;;;;;;;5049873;28;20452;-75
2023/01/20 13:49:24;;;;;;;12.03;6.97;;;;;;;;;;5063574;28;20772;-77
2023/01/20 13:51:51;;;;;;;6.60;5.97;;;;;;;;;;5069212;28;20539;-76
2023/01/20 13:54:36;;;;;;;9.97;5.93;;;;;;;;;;5069428;28;20542;-76
2023/01/20 13:57:24;;;;;;;6.57;5.40;;;;;;;;;;5070547;28;20854;-75
2023/01/20 13:59:51;;;;;;;7.30;5.17;;;;;;;;;;5070884;28;20492;-76
2023/01/20 14:02:20;;;;;;;5.63;5.13;;;;;;;;;;5069958;28;20985;-76
2023/01/20 14:04:47;;;;;;;6.57;5.13;;;;;;;;;;5069537;28;20451;-75
2023/01/20 14:07:22;;;;;;;6.40;4.57;;;;;;;;;;5068965;28;20456;-76
2023/01/20 14:09:52;;;;;;;7.40;5.37;;;;;;;;;;5070369;28;20495;-74
2023/01/20 14:12:19;;;;;;;6.13;5.17;;;;;;;;;;5073561;28;20490;-75
2023/01/20 14:14:48;;;;;;;5.80;5.20;;;;;;;;;;5064923;28;20480;-75
2023/01/20 14:17:17;;;;;;;5.60;5.10;;;;;;;;;;5062095;28;20813;-76
2023/01/20 14:19:48;;;;;;;4.80;4.23;;;;;;;;;;5062866;28;20461;-74
2023/01/20 14:22:19;;;;;;;7.77;4.83;;;;;;;;;;5063568;28;20443;-76
2023/01/20 14:24:47;;;;;;;5.00;4.50;;;;;;;;;;5061570;28;20498;-76
2023/01/20 14:27:18;;;;;;;5.13;4.63;;;;;;;;;;5061978;28;20433;-75
2023/01/20 14:29:45;;;;;;;5.73;5.23;;;;;;;;;;5064897;28;20503;-75
2023/01/20 14:32:17;;;;;;;5.90;5.23;;;;;;;;;;5074648;28;20468;-74
2023/01/20 14:34:44;;;;;;;4.90;4.50;;;;;;;;;;5066371;28;20519;-74
2023/01/20 14:37:22;;;;;;;5.80;4.90;;;;;;;;;;5064271;28;20462;-75
2023/01/20 14:39:50;;;;;;;5.20;4.70;;;;;;;;;;5052287;28;20484;-76
2023/01/20 14:42:18;;;;;;;5.57;5.03;;;;;;;;;;5052358;28;20469;-75
2023/01/20 14:44:47;;;;;;;7.93;4.73;;;;;;;;;;5051234;28;20438;-75
2023/01/20 14:47:14;;;;;;;5.13;3.87;;;;;;;;;;5052211;28;20449;-76
2023/01/20 14:49:43;;;;;;;4.53;4.23;;;;;;;;;;5051739;28;20897;-76
2023/01/20 14:52:12;;;;;;;4.60;4.27;;;;;;;;;;5051810;28;20448;-74